Time;durP1;ratioP1;P1;durP2;ratioP2;P2;SDS_P1;SDS_P2;PMS_P1;PMS_P2;Temp;Humidity;BMP_temperature;BMP_pressure;BME280_temperature;BME280_humidity;BME280_pressure;Samples;Min_cycle;Max_cycle;Signal;HPM_P1;HPM_P2
2021/12/15 00:00:25;;;;;;;;;64.75;45.00;;;;;8.66;77.63;102811.13;5037664;28;45647;-48
2021/12/15 00:02:52;;;;;;;;;62.25;46.00;;;;;8.68;78.32;102817.22;5037642;28;45433;-45
2021/12/15 00:05:23;;;;;;;;;53.50;41.25;;;;;8.70;77.65;102811.81;5037948;28;45435;-46
2021/12/15 00:07:52;;;;;;;;;61.75;41.25;;;;;8.67;77.50;102810.19;5035259;28;46123;-47
2021/12/15 00:10:19;;;;;;;;;57.50;44.00;;;;;8.67;77.85;102802.22;5037217;28;45386;-45
2021/12/15 00:12:45;;;;;;;;;64.00;42.25;;;;;8.69;77.76;102803.00;5037359;28;45435;-46
2021/12/15 00:15:11;;;;;;;;;58.25;43.00;;;;;8.63;77.95;102798.03;5037362;28;45431;-47
2021/12/15 00:17:36;;;;;;;;;61.50;47.00;;;;;8.67;76.89;102804.03;5037290;28;46827;-49
2021/12/15 00:20:06;;;;;;;;;54.00;39.75;;;;;8.67;77.36;102799.56;5037199;28;45367;-46
2021/12/15 00:22:32;;;;;;;;;58.50;44.75;;;;;8.69;77.68;102802.16;5037317;28;45222;-46
2021/12/15 00:24:57;;;;;;;;;57.50;41.25;;;;;8.69;77.80;102802.16;5037457;28;45377;-44
2021/12/15 00:27:24;;;;;;;;;55.25;45.25;;;;;8.68;77.46;102805.72;5037198;28;46209;-45
2021/12/15 00:29:49;;;;;;;;;54.25;41.75;;;;;8.70;76.90;102801.22;5037117;28;45413;-47
2021/12/15 00:32:16;;;;;;;;;55.75;40.50;;;;;8.70;77.03;102798.56;5037254;28;45344;-47
2021/12/15 00:34:41;;;;;;;;;60.00;42.25;;;;;8.65;76.42;102788.19;5037344;28;45462;-45
2021/12/15 00:37:07;;;;;;;;;58.00;46.00;;;;;8.68;77.79;102790.69;5036703;28;46961;-51
2021/12/15 00:39:33;;;;;;;;;48.75;41.25;;;;;8.57;77.65;102777.16;5036909;28;45772;-46
2021/12/15 00:41:59;;;;;;;;;57.00;42.00;;;;;8.69;77.58;102787.09;5037292;28;45473;-47
2021/12/15 00:44:24;;;;;;;;;42.25;30.25;;;;;8.75;77.35;102800.00;5037327;28;45282;-44
2021/12/15 00:46:52;;;;;;;;;59.00;41.50;;;;;8.73;77.03;102791.28;5036957;28;47019;-46
2021/12/15 00:49:19;;;;;;;;;48.25;35.00;;;;;8.72;77.18;102791.34;5036696;28;45266;-49
2021/12/15 00:51:44;;;;;;;;;53.25;34.00;;;;;8.74;76.60;102798.31;5036907;28;45367;-46
2021/12/15 00:54:11;;;;;;;;;50.50;41.75;;;;;8.77;77.28;102796.44;5037079;28;45347;-52
2021/12/15 00:56:37;;;;;;;;;52.00;40.00;;;;;8.73;76.77;102795.75;5036857;28;45395;-52
2021/12/15 00:59:05;;;;;;;;;54.25;38.25;;;;;8.72;76.53;102792.25;5036297;28;45401;-45
2021/12/15 01:01:31;;;;;;;;;45.50;31.50;;;;;8.61;77.26;102784.00;5036708;28;45222;-52
2021/12/15 01:03:57;;;;;;;;;47.50;36.75;;;;;8.74;77.44;102802.75;5036805;28;45360;-48
2021/12/15 01:06:23;;;;;;;;;44.00;38.25;;;;;8.79;76.75;102798.03;5036428;28;45414;-52
2021/12/15 01:08:56;;;;;;;;;54.50;39.00;;;;;8.75;77.34;102788.53;5036503;28;45382;-50
2021/12/15 01:19:54;;;;;;;;;48.25;39.25;;;;;8.72;77.13;102778.09;5036410;28;45416;-53
2021/12/15 01:22:22;;;;;;;;;52.00;40.25;;;;;8.77;76.64;102789.31;5036633;28;45387;-50
2021/12/15 01:24:49;;;;;;;;;54.50;40.00;;;;;8.76;76.98;102792.91;5036540;28;45363;-49
2021/12/15 01:27:14;;;;;;;;;60.00;38.50;;;;;8.78;77.02;102791.03;5036313;28;46015;-47
2021/12/15 01:29:40;;;;;;;;;57.75;40.00;;;;;8.80;77.13;102796.25;5036130;28;45396;-49
2021/12/15 01:32:06;;;;;;;;;42.75;33.00;;;;;8.83;77.12;102791.63;5036267;28;45421;-48
2021/12/15 01:34:31;;;;;;;;;47.25;37.00;;;;;8.84;76.37;102793.34;5036388;28;45322;-50
2021/12/15 01:37:00;;;;;;;;;56.75;41.50;;;;;8.87;77.10;102789.66;5035981;28;47199;-53
2021/12/15 01:39:26;;;;;;;;;61.50;40.50;;;;;8.85;76.11;102787.09;5036365;28;45314;-47
2021/12/15 01:41:55;;;;;;;;;49.50;38.50;;;;;8.81;76.96;102793.53;5035031;28;45297;-50
2021/12/15 01:46:59;;;;;;;;;48.25;34.50;;;;;8.82;76.16;102789.06;5036018;28;45335;-47
2021/12/15 01:49:39;;;;;;;;;52.00;41.25;;;;;8.84;76.34;102789.81;5037681;28;45422;-46
2021/12/15 01:52:26;;;;;;;;;44.50;35.25;;;;;8.82;77.03;102787.28;5039560;28;45487;-51
2021/12/15 01:54:59;;;;;;;;;47.75;42.25;;;;;8.81;76.11;102790.03;5039753;28;45286;-49
2021/12/15 01:57:29;;;;;;;;;41.50;36.75;;;;;8.82;76.58;102789.06;5039393;28;46467;-47
2021/12/15 01:59:55;;;;;;;;;53.25;37.50;;;;;8.85;76.63;102802.16;5039033;28;45453;-46
2021/12/15 02:02:21;;;;;;;;;48.50;37.50;;;;;8.86;76.99;102804.72;5039345;28;45337;-50
2021/12/15 02:04:48;;;;;;;;;47.25;37.50;;;;;8.87;76.38;102803.78;5039361;28;45306;-45
2021/12/15 02:07:16;;;;;;;;;48.75;39.25;;;;;8.87;76.58;102803.78;5039260;28;45338;-52
2021/12/15 02:10:01;;;;;;;;;48.50;39.25;;;;;8.71;76.72;102793.16;5039064;28;45513;-45
2021/12/15 02:12:33;;;;;;;;;52.75;42.00;;;;;8.74;76.87;102808.06;5039335;28;45508;-49
2021/12/15 02:15:00;;;;;;;;;55.50;39.00;;;;;8.72;76.51;102810.81;5039249;28;45476;-50
2021/12/15 02:17:26;;;;;;;;;45.75;39.00;;;;;8.74;76.36;102814.22;5039266;28;45371;-51
2021/12/15 02:19:51;;;;;;;;;44.00;38.75;;;;;8.75;76.67;102823.03;5038747;28;45528;-45
2021/12/15 02:22:17;;;;;;;;;48.50;36.50;;;;;8.73;75.92;102822.28;5039110;28;45517;-44
2021/12/15 02:24:44;;;;;;;;;53.00;38.50;;;;;8.72;76.05;102813.47;5039459;28;45464;-44
2021/12/15 02:27:12;;;;;;;;;38.75;32.50;;;;;8.67;75.74;102799.56;5038904;28;47135;-45
2021/12/15 02:29:41;;;;;;;;;47.00;39.00;;;;;8.78;76.22;102819.38;5038924;28;45296;-49
2021/12/15 02:32:28;;;;;;;;;48.50;41.50;;;;;8.75;75.97;102818.59;5038921;28;45357;-51
2021/12/15 02:37:04;;;;;;;;;44.50;34.00;;;;;8.69;76.48;102832.19;5038780;28;45508;-50
2021/12/15 02:37:41;;;;;;;;;42.75;34.00;;;;;8.73;75.86;102815.16;5038631;28;45212;-50
2021/12/15 02:40:11;;;;;;;;;42.25;35.00;;;;;8.68;76.86;102811.91;5038940;28;45318;-52
2021/12/15 02:42:42;;;;;;;;;43.00;38.00;;;;;8.64;76.81;102822.78;5038592;28;45357;-52
2021/12/15 02:45:11;;;;;;;;;44.50;36.50;;;;;8.68;76.65;102817.22;5038882;28;45540;-52
2021/12/15 02:47:37;;;;;;;;;49.25;38.75;;;;;8.66;76.91;102813.78;5038471;28;46666;-48
2021/12/15 02:50:06;;;;;;;;;53.75;39.25;;;;;8.67;76.82;102823.44;5038597;28;45483;-47
2021/12/15 02:52:32;;;;;;;;;44.75;36.75;;;;;8.63;75.83;102797.16;5038713;28;45416;-46
2021/12/15 02:54:57;;;;;;;;;44.00;37.75;;;;;8.71;76.53;102801.13;5038832;28;45436;-50
2021/12/15 02:57:23;;;;;;;;;50.50;41.50;;;;;8.75;75.65;102815.06;5038502;28;46125;-46
2021/12/15 02:59:57;;;;;;;;;54.25;39.25;;;;;8.69;75.86;102818.94;5037926;28;45243;-51
2021/12/15 03:05:12;;;;;;;;;40.50;33.75;;;;;8.59;75.59;102799.13;5038608;28;45260;-43
2021/12/15 03:15:40;;;;;;;;;42.75;34.75;;;;;8.66;76.23;102816.44;5038231;28;45472;-43
2021/12/15 03:18:11;;;;;;;;;44.75;33.50;;;;;8.64;75.56;102810.38;5038238;28;47113;-44
2021/12/15 03:21:17;;;;;;;;;49.25;35.50;;;;;8.66;75.96;102818.25;5038041;28;45332;-45
2021/12/15 03:23:54;;;;;;;;;43.50;36.50;;;;;8.68;76.32;102817.22;4937666;28;45492;-43
2021/12/15 03:26:27;;;;;;;;;40.00;30.50;;;;;8.66;75.88;102808.47;4937907;28;45499;-43
2021/12/15 03:34:50;;;;;;;;;37.75;35.00;;;;;8.62;76.53;102814.03;4937535;28;45404;-44
2021/12/15 03:37:25;;;;;;;;;39.75;32.75;;;;;8.59;76.47;102815.03;4937436;28;45385;-44
2021/12/15 03:39:54;;;;;;;;;43.50;37.25;;;;;8.59;76.37;102816.84;4937421;28;46089;-44
2021/12/15 03:42:26;;;;;;;;;54.25;33.50;;;;;8.62;76.05;102822.00;4937507;28;45451;-44
2021/12/15 03:44:52;;;;;;;;;48.25;37.00;;;;;8.63;75.95;102827.22;4937534;28;45360;-44
2021/12/15 03:47:23;;;;;;;;;49.50;36.25;;;;;8.65;75.88;102833.31;4937659;28;45444;-44
2021/12/15 03:49:53;;;;;;;;;44.75;36.00;;;;;8.67;75.98;102834.06;4937425;28;45466;-45
2021/12/15 03:52:19;;;;;;;;;34.00;27.00;;;;;8.69;75.18;102818.94;4937379;28;45260;-47
2021/12/15 03:54:45;;;;;;;;;40.00;36.75;;;;;8.71;75.44;102817.03;4937381;28;45391;-48
2021/12/15 03:57:12;;;;;;;;;47.75;37.00;;;;;8.69;76.22;102821.59;4937593;28;45621;-45
2021/12/15 03:59:42;;;;;;;;;42.25;32.00;;;;;8.63;76.80;102826.34;4953404;28;46605;-49
2021/12/15 04:02:08;;;;;;;;;47.75;37.25;;;;;8.54;76.27;102816.25;5037484;28;45408;-46
2021/12/15 04:04:34;;;;;;;;;45.00;32.25;;;;;8.58;76.10;102826.59;5037528;28;45219;-47
2021/12/15 04:06:59;;;;;;;;;40.75;37.50;;;;;8.60;76.41;102830.06;5037647;28;45315;-44
2021/12/15 04:09:24;;;;;;;;;37.75;34.50;;;;;8.63;76.31;102834.31;5037366;28;45674;-46
2021/12/15 04:11:52;;;;;;;;;47.00;38.25;;;;;8.62;76.38;102830.81;5037008;28;45419;-46
2021/12/15 04:14:21;;;;;;;;;45.00;36.25;;;;;8.61;76.06;102826.44;5037431;28;45430;-44
2021/12/15 04:17:01;;;;;;;;;39.25;28.50;;;;;8.57;75.62;102827.56;5037530;28;45590;-47
2021/12/15 04:19:33;;;;;;;;;38.50;32.75;;;;;8.60;76.59;102818.59;5037067;28;47013;-46
2021/12/15 04:21:59;;;;;;;;;34.50;26.25;;;;;8.57;75.88;102810.78;5036999;28;45369;-44
2021/12/15 04:24:26;;;;;;;;;45.00;33.25;;;;;8.67;76.31;102817.28;5037298;28;45295;-44
2021/12/15 04:26:54;;;;;;;;;39.75;34.25;;;;;8.64;75.79;102807.72;5037392;28;45365;-45
2021/12/15 04:29:19;;;;;;;;;37.25;27.50;;;;;8.60;76.23;102810.63;5037229;28;45362;-48
2021/12/15 04:31:52;;;;;;;;;50.50;37.00;;;;;8.63;76.14;102821.03;5036781;28;45337;-47
2021/12/15 04:34:18;;;;;;;;;54.50;38.50;;;;;8.62;75.74;102816.69;5037154;28;45389;-47
2021/12/15 04:36:47;;;;;;;;;39.25;31.75;;;;;8.62;76.12;102817.53;5037243;28;45342;-45
2021/12/15 04:39:18;;;;;;;;;39.75;34.50;;;;;8.66;76.22;102811.13;5036833;28;47153;-43
2021/12/15 04:41:48;;;;;;;;;35.25;30.75;;;;;8.56;76.10;102807.28;5036823;28;45181;-46
2021/12/15 04:44:15;;;;;;;;;37.50;32.00;;;;;8.60;75.87;102814.13;5036990;28;45280;-48
2021/12/15 04:46:46;;;;;;;;;42.00;34.75;;;;;8.63;76.39;102819.25;5037118;28;45312;-46
2021/12/15 04:49:14;;;;;;;;;42.00;31.75;;;;;8.66;75.91;102829.69;5036778;28;45640;-45
2021/12/15 04:51:39;;;;;;;;;46.25;33.00;;;;;8.68;76.09;102822.53;5036578;28;45276;-45
2021/12/15 04:54:05;;;;;;;;;41.50;38.50;;;;;8.71;75.38;102822.34;5036201;28;45307;-46
2021/12/15 04:56:31;;;;;;;;;38.25;32.75;;;;;8.73;76.18;102835.53;5037008;28;45339;-44
2021/12/15 04:58:56;;;;;;;;;36.75;31.00;;;;;8.72;75.34;102826.72;5036860;28;46216;-44
2021/12/15 05:01:23;;;;;;;;;47.75;35.50;;;;;8.72;75.97;102837.34;5036692;28;45317;-46
2021/12/15 05:03:49;;;;;;;;;46.50;36.75;;;;;8.68;76.01;102835.81;5036805;28;45164;-45
2021/12/15 05:06:15;;;;;;;;;44.25;35.25;;;;;8.66;75.83;102842.13;5036712;28;45445;-46
2021/12/15 05:08:41;;;;;;;;;29.50;28.75;;;;;8.66;75.89;102839.47;5036433;28;46154;-45
2021/12/15 05:11:08;;;;;;;;;39.00;32.25;;;;;8.70;75.60;102847.16;5036645;28;45449;-44
2021/12/15 05:13:34;;;;;;;;;32.75;29.75;;;;;8.74;74.87;102847.88;5036573;28;45368;-45
2021/12/15 05:16:02;;;;;;;;;45.50;34.25;;;;;8.77;75.50;102845.06;5036562;28;45244;-46
2021/12/15 05:18:28;;;;;;;;;39.00;31.50;;;;;8.75;75.10;102841.63;5036102;28;46174;-46
2021/12/15 05:20:54;;;;;;;;;41.50;30.50;;;;;8.79;74.59;102850.25;5036300;28;45422;-45
2021/12/15 05:23:21;;;;;;;;;39.00;32.25;;;;;8.80;74.60;102857.28;5036590;28;45346;-43
2021/12/15 05:25:48;;;;;;;;;36.75;31.00;;;;;8.82;75.42;102852.75;5040177;28;45437;-45
2021/12/15 05:28:14;;;;;;;;;45.25;34.00;;;;;8.84;74.81;102850.88;5039262;28;46238;-45
2021/12/15 05:30:40;;;;;;;;;44.50;30.50;;;;;8.83;75.53;102850.00;5039941;28;45310;-45
2021/12/15 05:33:06;;;;;;;;;38.50;33.25;;;;;8.82;75.06;102848.31;5040430;28;45192;-46
2021/12/15 05:35:33;;;;;;;;;44.25;32.75;;;;;8.85;74.99;102858.75;5040574;28;45435;-44
2021/12/15 05:38:01;;;;;;;;;37.00;31.75;;;;;8.86;74.64;102862.28;5039981;28;46242;-46
2021/12/15 05:40:28;;;;;;;;;42.00;31.25;;;;;8.83;74.80;102870.38;5040267;28;45398;-44
2021/12/15 05:42:56;;;;;;;;;45.75;31.75;;;;;8.77;74.60;102866.28;5040475;28;45279;-45
2021/12/15 05:45:23;;;;;;;;;35.75;28.50;;;;;8.73;74.79;102870.91;5040600;28;45392;-44
2021/12/15 05:47:49;;;;;;;;;33.00;29.25;;;;;8.63;75.32;102848.44;5040214;28;46139;-46
2021/12/15 05:50:15;;;;;;;;;37.75;34.25;;;;;8.76;75.10;102864.53;5039718;28;45555;-46
2021/12/15 05:52:40;;;;;;;;;33.50;30.50;;;;;8.72;75.27;102853.28;5039765;28;45590;-46
2021/12/15 05:55:07;;;;;;;;;32.75;23.50;;;;;8.80;74.88;102866.09;5040111;28;45295;-46
2021/12/15 05:57:33;;;;;;;;;32.25;26.75;;;;;8.69;74.49;102856.09;5039539;28;46572;-46
2021/12/15 05:59:59;;;;;;;;;43.00;31.75;;;;;8.78;75.05;102869.78;5039532;28;45331;-43
2021/12/15 06:02:24;;;;;;;;;41.50;27.75;;;;;8.75;74.45;102868.16;5039655;28;45389;-46
2021/12/15 06:04:49;;;;;;;;;36.00;27.25;;;;;8.78;74.65;102881.25;5039769;28;45397;-46
2021/12/15 06:07:15;;;;;;;;;35.50;30.25;;;;;8.77;74.02;102881.34;5039471;28;45452;-49
2021/12/15 06:09:40;;;;;;;;;37.75;28.25;;;;;8.81;74.08;102874.94;5039330;28;45454;-43
2021/12/15 06:12:07;;;;;;;;;37.50;27.50;;;;;8.82;73.87;102874.00;5038972;28;45343;-47
2021/12/15 06:14:34;;;;;;;;;33.00;26.50;;;;;8.79;74.29;102866.19;5039146;28;45440;-45
2021/12/15 06:17:09;;;;;;;;;41.75;29.25;;;;;8.84;74.22;102875.59;5038560;28;45444;-51
2021/12/15 06:19:35;;;;;;;;;25.50;18.75;;;;;8.83;74.34;102888.97;5039219;28;45465;-51
2021/12/15 06:22:04;;;;;;;;;25.25;18.75;;;;;8.82;73.56;102888.13;5039327;28;45696;-44
2021/12/15 06:24:29;;;;;;;;;34.50;25.25;;;;;8.83;73.98;102891.63;5039263;28;45212;-44
2021/12/15 06:26:57;;;;;;;;;26.00;20.25;;;;;8.84;73.07;102890.69;5038973;28;46959;-47
2021/12/15 06:29:23;;;;;;;;;37.75;26.25;;;;;8.85;73.87;102897.69;5021712;28;45533;-44
2021/12/15 06:31:48;;;;;;;;;29.75;21.00;;;;;8.80;73.78;102891.78;5038862;28;45687;-46
2021/12/15 06:34:15;;;;;;;;;39.50;27.50;;;;;8.68;74.31;102867.63;5039395;28;45398;-45
2021/12/15 06:36:41;;;;;;;;;38.75;29.00;;;;;8.87;73.89;102895.84;5038330;28;46302;-45
2021/12/15 06:39:06;;;;;;;;;23.00;22.00;;;;;8.88;73.40;102902.84;5038758;28;45511;-45
2021/12/15 06:41:32;;;;;;;;;28.00;21.50;;;;;8.88;73.99;102905.50;5039082;28;45222;-48
2021/12/15 06:43:59;;;;;;;;;27.75;21.25;;;;;8.87;73.15;102902.00;5021182;28;45306;-50
2021/12/15 06:59:49;;;;;;;;;31.00;21.75;;;;;8.78;72.74;102905.16;5038421;28;45220;-46
2021/12/15 07:02:15;;;;;;;;;33.00;24.00;;;;;8.85;72.84;102917.16;5038722;28;45300;-45
2021/12/15 07:04:40;;;;;;;;;31.00;24.25;;;;;8.85;72.62;102917.16;5038935;28;45323;-44
2021/12/15 07:07:06;;;;;;;;;30.50;25.00;;;;;8.86;73.44;102925.97;5038442;28;46172;-43
2021/12/15 07:09:33;;;;;;;;;22.00;19.75;;;;;8.83;73.27;102915.50;5038429;28;45401;-45
2021/12/15 07:11:59;;;;;;;;;25.00;23.00;;;;;8.77;73.14;102914.06;5038479;28;45263;-44
2021/12/15 07:14:25;;;;;;;;;24.00;20.75;;;;;8.80;73.03;102921.81;5038613;28;45334;-43
2021/12/15 07:16:52;;;;;;;;;28.00;25.00;;;;;8.83;73.19;102932.28;5038248;28;45958;-44
2021/12/15 07:19:30;;;;;;;;;23.75;21.00;;;;;8.83;73.79;102926.13;5038387;28;45274;-45
2021/12/15 07:24:33;;;;;;;;;31.75;21.50;;;;;8.89;73.16;102931.09;5038373;28;45567;-45
2021/12/15 07:27:00;;;;;;;;;27.25;23.00;;;;;8.89;73.01;102939.06;5038031;28;45432;-44
2021/12/15 07:29:27;;;;;;;;;30.75;23.50;;;;;8.90;73.50;102946.09;5038103;28;45361;-42
2021/12/15 07:31:53;;;;;;;;;24.00;17.50;;;;;8.89;72.70;102942.59;5038040;28;45291;-43
2021/12/15 07:34:19;;;;;;;;;32.50;25.50;;;;;8.92;72.99;102950.38;5038256;28;45542;-46
2021/12/15 07:36:44;;;;;;;;;27.25;23.50;;;;;8.94;72.70;102943.19;5038052;28;46089;-45
2021/12/15 07:39:11;;;;;;;;;31.50;26.25;;;;;8.96;73.02;102949.28;5037968;28;45309;-45
2021/12/15 07:41:48;;;;;;;;;34.75;24.50;;;;;8.95;73.65;102954.66;5038478;28;45820;-44
2021/12/15 07:44:14;;;;;;;;;32.00;22.00;;;;;8.99;73.62;102953.56;5038331;28;45327;-43
2021/12/15 07:46:39;;;;;;;;;31.25;27.75;;;;;8.97;73.04;102951.00;5037084;28;46949;-45
2021/12/15 07:49:05;;;;;;;;;37.75;25.00;;;;;9.01;72.75;102956.97;5037875;28;45301;-43
2021/12/15 07:51:30;;;;;;;;;33.50;24.25;;;;;9.00;73.13;102969.41;5037725;28;45311;-45
2021/12/15 07:53:55;;;;;;;;;31.25;27.00;;;;;9.03;73.38;102962.22;5037947;28;45424;-44
2021/12/15 07:56:21;;;;;;;;;32.50;27.75;;;;;9.03;73.36;102965.75;5037488;28;46159;-46
2021/12/15 07:58:46;;;;;;;;;32.50;25.25;;;;;8.99;72.93;102975.66;5037506;28;45310;-45
2021/12/15 08:01:11;;;;;;;;;35.50;29.00;;;;;8.95;72.69;102979.41;5038045;28;45309;-45
2021/12/15 08:03:40;;;;;;;;;35.75;27.25;;;;;8.96;73.23;102962.53;5037776;28;45358;-45
2021/12/15 08:06:06;;;;;;;;;44.00;28.25;;;;;9.08;73.09;102968.16;5037596;28;46374;-46
2021/12/15 08:08:32;;;;;;;;;34.50;26.50;;;;;9.13;73.14;102974.06;5037248;28;45258;-45
2021/12/15 08:10:58;;;;;;;;;38.75;25.25;;;;;9.16;73.33;102966.78;5037593;28;45322;-45
2021/12/15 08:13:30;;;;;;;;;37.00;26.00;;;;;9.19;72.90;102979.91;5037941;28;45349;-46
2021/12/15 08:15:55;;;;;;;;;31.25;28.50;;;;;9.22;72.80;102973.56;5037185;28;46118;-46
2021/12/15 08:18:21;;;;;;;;;24.00;22.00;;;;;9.28;72.84;102972.38;5037298;28;45339;-45
2021/12/15 08:20:47;;;;;;;;;32.75;25.75;;;;;9.36;71.69;102984.31;5037779;28;45371;-44
2021/12/15 08:23:13;;;;;;;;;30.25;22.75;;;;;9.36;72.33;102981.66;5037590;28;45389;-44
2021/12/15 08:25:40;;;;;;;;;26.00;21.00;;;;;9.35;72.18;102976.41;5037018;28;45496;-46
2021/12/15 08:28:07;;;;;;;;;26.75;25.25;;;;;9.41;72.34;102984.06;5037224;28;45309;-46
2021/12/15 08:30:34;;;;;;;;;40.25;24.25;;;;;9.40;72.20;102971.72;5037054;28;45486;-45
2021/12/15 08:33:04;;;;;;;;;29.00;19.75;;;;;9.50;72.17;102980.88;5037401;28;45212;-44
2021/12/15 08:35:38;;;;;;;;;24.33;20.33;;;;;9.40;72.23;102966.41;5036991;28;47451;-44
2021/12/15 08:38:05;;;;;;;;;33.25;24.00;;;;;9.48;72.17;102988.06;5036885;28;45424;-44
2021/12/15 08:40:31;;;;;;;;;28.50;20.75;;;;;9.52;72.04;102986.94;5036833;28;45367;-45
2021/12/15 08:42:57;;;;;;;;;32.25;25.50;;;;;9.54;71.71;102985.09;5037357;28;45425;-49
2021/12/15 08:45:24;;;;;;;;;35.50;28.25;;;;;9.55;72.26;102976.16;5036953;28;46533;-46
2021/12/15 08:47:51;;;;;;;;;36.25;26.75;;;;;9.55;71.59;102978.81;5037033;28;45207;-44
2021/12/15 08:50:22;;;;;;;;;28.00;23.00;;;;;9.61;71.92;102989.13;5037178;28;45531;-46
2021/12/15 08:52:47;;;;;;;;;28.25;24.00;;;;;9.62;71.72;102985.50;5037313;28;45212;-47
2021/12/15 08:55:14;;;;;;;;;32.75;27.25;;;;;9.52;71.60;102973.66;5036824;28;45305;-46
2021/12/15 08:57:46;;;;;;;;;27.75;21.25;;;;;9.63;71.66;102989.88;5036832;28;45310;-44
2021/12/15 09:00:13;;;;;;;;;30.25;22.75;;;;;9.58;71.47;102983.97;5036467;28;45318;-46
2021/12/15 09:02:38;;;;;;;;;31.25;23.50;;;;;9.59;71.96;102985.69;5037298;28;45576;-46
2021/12/15 09:05:05;;;;;;;;;46.00;31.50;;;;;9.67;71.80;102986.09;5037078;28;45366;-46
2021/12/15 09:07:31;;;;;;;;;37.25;22.00;;;;;9.65;71.62;102969.41;5037302;28;45224;-47
2021/12/15 09:09:56;;;;;;;;;31.00;27.00;;;;;9.83;71.96;102988.78;5036896;28;45347;-49
2021/12/15 09:12:22;;;;;;;;;31.75;22.00;;;;;9.85;71.38;102984.19;5037142;28;45323;-51
2021/12/15 09:14:47;;;;;;;;;32.50;22.50;;;;;9.84;71.82;102982.50;5036484;28;47110;-49
2021/12/15 09:17:13;;;;;;;;;29.75;18.00;;;;;9.91;71.50;103002.47;5036843;28;45446;-51
2021/12/15 09:19:38;;;;;;;;;29.50;22.75;;;;;9.87;71.18;102997.44;5037046;28;45264;-49
2021/12/15 09:22:05;;;;;;;;;32.50;27.00;;;;;9.92;71.65;102998.88;5036987;28;45346;-49
2021/12/15 09:24:30;;;;;;;;;30.75;23.50;;;;;10.00;71.48;102998.44;5035603;28;45402;-53
2021/12/15 09:26:56;;;;;;;;;30.50;22.75;;;;;10.02;71.68;102996.53;5036566;28;45382;-50
2021/12/15 09:29:23;;;;;;;;;36.25;26.50;;;;;9.96;71.05;102988.94;5036695;28;45425;-47
2021/12/15 09:31:49;;;;;;;;;27.75;25.00;;;;;10.03;71.39;103000.03;5036908;28;45290;-53
2021/12/15 09:34:18;;;;;;;;;29.75;25.25;;;;;9.99;71.12;103002.06;5036300;28;46501;-45
2021/12/15 09:36:46;;;;;;;;;34.50;31.75;;;;;10.07;71.65;103009.56;5036284;28;45434;-45
2021/12/15 09:39:14;;;;;;;;;36.75;34.25;;;;;10.00;71.03;103009.06;5036497;28;45287;-44
2021/12/15 09:41:41;;;;;;;;;35.50;27.75;;;;;10.05;71.56;102999.03;5036586;28;45604;-44
2021/12/15 09:44:10;;;;;;;;;40.25;31.50;;;;;10.21;70.91;103007.00;5036160;28;46232;-51
2021/12/15 09:47:08;;;;;;;;;28.00;27.00;;;;;10.22;70.82;103006.88;5036394;28;45425;-45
2021/12/15 10:03:49;;;;;;;;;35.25;24.75;;;;;10.15;71.66;102991.38;5036647;28;45285;-44
2021/12/15 10:06:26;;;;;;;;;23.50;20.50;;;;;10.19;71.29;103000.88;5035441;28;46085;-46
2021/12/15 10:11:53;;;;;;;;;30.25;22.00;;;;;10.20;71.25;102999.97;5039223;28;45287;-50
2021/12/15 10:20:00;;;;;;;;;27.00;21.33;;;;;10.13;71.43;103011.88;5039347;28;45417;-44
2021/12/15 10:22:42;;;;;;;;;20.33;18.33;;;;;10.16;71.58;103012.56;5039130;28;45360;-44
2021/12/15 10:25:28;;;;;;;;;38.75;29.50;;;;;10.23;71.23;103008.59;5039136;28;45337;-45
2021/12/15 10:28:03;;;;;;;;;15.00;13.33;;;;;10.23;71.15;103005.94;5039237;28;46461;-47
2021/12/15 10:30:30;;;;;;;;;24.33;16.67;;;;;10.21;70.58;103010.50;5039017;28;45360;-44
2021/12/15 10:33:09;;;;;;;;;18.33;14.33;;;;;10.19;71.00;103004.41;5039261;28;45263;-46
2021/12/15 10:35:40;;;;;;;;;20.33;18.33;;;;;10.25;70.85;103011.22;5039217;28;45325;-48
2021/12/15 10:38:11;;;;;;;;;19.67;14.67;;;;;10.31;70.64;103010.00;5038823;28;46373;-46
2021/12/15 10:40:52;;;;;;;;;17.00;13.33;;;;;10.37;70.11;103004.34;5038765;28;45389;-46
2021/12/15 10:43:20;;;;;;;;;16.67;14.67;;;;;10.43;70.50;103009.28;5038997;28;45402;-46
2021/12/15 10:45:51;;;;;;;;;12.33;12.00;;;;;10.53;69.54;103006.91;5039008;28;45424;-45
2021/12/15 10:48:35;;;;;;;;;14.33;11.00;;;;;10.22;69.57;102947.50;5038762;28;46499;-45
2021/12/15 10:51:21;;;;;;;;;15.33;11.67;;;;;10.53;69.94;102997.13;5038813;28;45295;-45
2021/12/15 10:53:49;;;;;;;;;18.33;10.33;;;;;10.59;70.03;102996.78;5038806;28;45398;-45
2021/12/15 10:56:19;;;;;;;;;11.00;10.00;;;;;10.61;69.63;102992.22;5038507;28;45409;-45
2021/12/15 10:58:54;;;;;;;;;15.33;14.33;;;;;10.61;69.91;102989.53;5037304;28;46206;-44
2021/12/15 11:01:40;;;;;;;;;15.67;11.00;;;;;10.62;69.97;102993.06;5038778;28;45223;-45
2021/12/15 11:04:29;;;;;;;;;11.00;11.00;;;;;10.62;69.73;102988.63;5038610;28;45265;-44
2021/12/15 11:07:13;;;;;;;;;18.67;12.00;;;;;10.67;69.39;102994.50;5038954;28;45427;-43
2021/12/15 11:09:47;;;;;;;;;16.00;12.67;;;;;10.66;69.19;102992.81;5038366;28;45968;-43
2021/12/15 11:12:47;;;;;;;;;20.00;10.67;;;;;10.83;68.97;102996.22;5038284;28;45411;-43
2021/12/15 11:15:26;;;;;;;;;16.67;11.00;;;;;10.97;69.17;102989.13;4957228;28;45478;-44
2021/12/15 11:18:22;;;;;;;;;13.00;9.67;;;;;10.99;68.62;102989.88;4957403;28;45569;-44
2021/12/15 11:21:04;;;;;;;;;16.67;15.00;;;;;10.99;68.34;102997.00;4956618;28;46066;-44
2021/12/15 11:23:31;;;;;;;;;15.00;13.67;;;;;10.94;68.42;102983.13;4956908;28;45252;-45
2021/12/15 11:26:04;;;;;;;;;15.33;12.67;;;;;10.65;68.82;102944.97;4956959;28;45241;-43
2021/12/15 11:28:54;;;;;;;;;15.00;7.67;;;;;10.90;68.80;102989.59;4957405;28;45471;-45
2021/12/15 11:31:25;;;;;;;;;23.33;17.67;;;;;10.90;68.89;102986.94;4956161;28;46472;-43
2021/12/15 11:33:57;;;;;;;;;14.00;12.67;;;;;10.88;68.77;102983.53;4956977;28;45342;-43
2021/12/15 11:36:31;;;;;;;;;23.33;16.67;;;;;10.88;68.53;102983.53;4956989;28;45264;-48
2021/12/15 11:39:02;;;;;;;;;19.67;17.33;;;;;10.85;69.00;102975.72;4957079;28;45428;-45
2021/12/15 11:41:32;;;;;;;;;21.00;16.33;;;;;10.88;68.85;102970.22;4956580;28;47080;-44
2021/12/15 11:43:59;;;;;;;;;24.00;16.00;;;;;10.91;69.39;102975.31;4956593;28;45325;-44
2021/12/15 11:46:27;;;;;;;;;12.67;12.67;;;;;10.97;69.16;102978.47;4956882;28;45367;-45
2021/12/15 11:49:02;;;;;;;;;18.67;12.00;;;;;10.98;68.58;102974.84;4956953;28;45341;-44
2021/12/15 11:51:39;;;;;;;;;17.33;16.00;;;;;10.94;68.99;102976.00;5018655;28;46288;-44
2021/12/15 11:54:12;;;;;;;;;20.33;16.00;;;;;10.98;69.09;102979.31;5037819;28;45353;-46
2021/12/15 11:56:38;;;;;;;;;17.00;16.00;;;;;10.99;69.10;102970.38;5037742;28;45464;-44
2021/12/15 11:59:26;;;;;;;;;17.67;13.33;;;;;11.03;68.87;102977.22;5038084;28;45247;-45
2021/12/15 12:01:57;;;;;;;;;21.00;17.00;;;;;11.04;68.46;102968.31;5037233;28;45329;-45
2021/12/15 12:04:24;;;;;;;;;15.67;13.67;;;;;11.03;68.94;102966.56;5037597;28;45369;-43
2021/12/15 12:06:54;;;;;;;;;10.33;4.67;;;;;10.98;69.21;102974.00;5037719;28;45450;-45
2021/12/15 12:09:21;;;;;;;;;14.67;11.67;;;;;10.97;69.15;102966.97;5037919;28;45235;-44
2021/12/15 12:11:54;;;;;;;;;19.00;18.00;;;;;10.96;69.18;102966.13;5037244;28;46069;-46
2021/12/15 12:14:37;;;;;;;;;18.00;16.00;;;;;10.92;69.14;102959.28;5037128;28;45431;-43
2021/12/15 12:17:06;;;;;;;;;27.00;17.33;;;;;10.81;69.52;102947.56;5037420;28;45343;-45
2021/12/15 12:19:32;;;;;;;;;17.00;15.33;;;;;10.92;69.07;102966.41;5037831;28;45626;-44
2021/12/15 12:21:58;;;;;;;;;20.67;17.67;;;;;10.91;69.30;102962.00;5037203;28;46132;-44
2021/12/15 12:24:24;;;;;;;;;17.67;16.33;;;;;10.83;69.29;102942.97;5037478;28;45385;-43
2021/12/15 12:26:50;;;;;;;;;21.00;16.00;;;;;10.96;69.57;102960.78;5037280;28;45387;-46
2021/12/15 12:29:16;;;;;;;;;16.00;15.00;;;;;10.96;69.39;102950.13;5037685;28;45465;-46